sensor_id;sensor_type;location;lat;lon;timestamp;temperature;humidity
13035;DHT22;6584;48.022;11.810;2022-10-31T00:00:51;12.10;99.90
13035;DHT22;6584;48.022;11.810;2022-10-31T00:03:17;12.10;99.90
13035;DHT22;6584;48.022;11.810;2022-10-31T00:05:48;12.20;99.90
13035;DHT22;6584;48.022;11.810;2022-10-31T00:08:15;12.20;99.90
13035;DHT22;6584;48.022;11.810;2022-10-31T00:10:41;12.00;99.90
13035;DHT22;6584;48.022;11.810;2022-10-31T00:13:08;12.00;99.90
13035;DHT22;6584;48.022;11.810;2022-10-31T00:15:35;12.00;99.90
13035;DHT22;6584;48.022;11.810;2022-10-31T00:18:01;12.00;99.90
13035;DHT22;6584;48.022;11.810;2022-10-31T00:20:26;12.00;99.90
13035;DHT22;6584;48.022;11.810;2022-10-31T00:22:52;11.90;99.90
13035;DHT22;6584;48.022;11.810;2022-10-31T00:25:18;11.80;99.90
13035;DHT22;6584;48.022;11.810;2022-10-31T00:27:43;11.80;99.90
13035;DHT22;6584;48.022;11.810;2022-10-31T00:30:09;11.80;99.90
13035;DHT22;6584;48.022;11.810;2022-10-31T00:32:35;11.80;99.90
13035;DHT22;6584;48.022;11.810;2022-10-31T00:35:00;11.70;99.90
13035;DHT22;6584;48.022;11.810;2022-10-31T00:37:27;11.70;99.90
13035;DHT22;6584;48.022;11.810;2022-10-31T00:39:52;11.70;99.90
13035;DHT22;6584;48.022;11.810;2022-10-31T00:42:18;11.60;99.90
13035;DHT22;6584;48.022;11.810;2022-10-31T00:44:43;11.70;99.90
13035;DHT22;6584;48.022;11.810;2022-10-31T00:47:09;11.60;99.90
13035;DHT22;6584;48.022;11.810;2022-10-31T00:49:34;11.60;99.90
13035;DHT22;6584;48.022;11.810;2022-10-31T00:52:00;11.60;99.90
13035;DHT22;6584;48.022;11.810;2022-10-31T00:54:25;11.60;99.90
13035;DHT22;6584;48.022;11.810;2022-10-31T00:56:51;11.60;99.90
13035;DHT22;6584;48.022;11.810;2022-10-31T00:59:16;11.70;99.90
13035;DHT22;6584;48.022;11.810;2022-10-31T01:01:42;11.70;99.90
13035;DHT22;6584;48.022;11.810;2022-10-31T01:04:07;11.70;99.90
13035;DHT22;6584;48.022;11.810;2022-10-31T01:06:33;11.70;99.90
13035;DHT22;6584;48.022;11.810;2022-10-31T01:08:59;11.60;99.90
13035;DHT22;6584;48.022;11.810;2022-10-31T01:11:24;11.60;99.90
13035;DHT22;6584;48.022;11.810;2022-10-31T01:13:52;11.60;99.90
13035;DHT22;6584;48.022;11.810;2022-10-31T01:16:20;11.60;99.90
13035;DHT22;6584;48.022;11.810;2022-10-31T01:18:46;11.60;99.90
13035;DHT22;6584;48.022;11.810;2022-10-31T01:21:21;11.60;99.90
13035;DHT22;6584;48.022;11.810;2022-10-31T01:23:47;11.60;99.90
13035;DHT22;6584;48.022;11.810;2022-10-31T01:26:17;11.60;99.90
13035;DHT22;6584;48.022;11.810;2022-10-31T01:28:47;11.50;99.90
13035;DHT22;6584;48.022;11.810;2022-10-31T01:31:14;11.50;99.90
13035;DHT22;6584;48.022;11.810;2022-10-31T01:33:40;11.50;99.90
13035;DHT22;6584;48.022;11.810;2022-10-31T01:36:23;11.50;99.90
13035;DHT22;6584;48.022;11.810;2022-10-31T01:38:51;11.50;99.90
13035;DHT22;6584;48.022;11.810;2022-10-31T01:41:20;11.50;99.90
13035;DHT22;6584;48.022;11.810;2022-10-31T01:43:53;11.40;99.90
13035;DHT22;6584;48.022;11.810;2022-10-31T01:46:33;11.40;99.90
13035;DHT22;6584;48.022;11.810;2022-10-31T01:49:02;11.30;99.90
13035;DHT22;6584;48.022;11.810;2022-10-31T01:51:33;11.30;99.90
13035;DHT22;6584;48.022;11.810;2022-10-31T01:54:04;11.40;99.90
13035;DHT22;6584;48.022;11.810;2022-10-31T01:56:32;11.40;99.90
13035;DHT22;6584;48.022;11.810;2022-10-31T01:59:01;11.40;99.90
13035;DHT22;6584;48.022;11.810;2022-10-31T02:01:29;11.40;99.90
13035;DHT22;6584;48.022;11.810;2022-10-31T02:03:55;11.40;99.90
13035;DHT22;6584;48.022;11.810;2022-10-31T02:06:41;11.40;99.90
13035;DHT22;6584;48.022;11.810;2022-10-31T02:09:08;11.30;99.90
13035;DHT22;6584;48.022;11.810;2022-10-31T02:11:34;11.30;99.90
13035;DHT22;6584;48.022;11.810;2022-10-31T02:14:02;11.30;99.90
13035;DHT22;6584;48.022;11.810;2022-10-31T02:16:27;11.30;99.90
13035;DHT22;6584;48.022;11.810;2022-10-31T02:18:53;11.30;99.90
13035;DHT22;6584;48.022;11.810;2022-10-31T02:21:45;11.20;99.90
13035;DHT22;6584;48.022;11.810;2022-10-31T02:24:40;11.20;99.90
13035;DHT22;6584;48.022;11.810;2022-10-31T02:32:25;11.10;99.90
13035;DHT22;6584;48.022;11.810;2022-10-31T02:35:02;11.20;99.90
13035;DHT22;6584;48.022;11.810;2022-10-31T02:37:33;11.10;99.90
13035;DHT22;6584;48.022;11.810;2022-10-31T02:42:42;11.10;99.90
13035;DHT22;6584;48.022;11.810;2022-10-31T02:45:18;11.10;99.90
13035;DHT22;6584;48.022;11.810;2022-10-31T02:47:46;11.10;99.90
13035;DHT22;6584;48.022;11.810;2022-10-31T02:50:16;11.00;99.90
13035;DHT22;6584;48.022;11.810;2022-10-31T02:52:43;11.00;99.90
13035;DHT22;6584;48.022;11.810;2022-10-31T02:57:59;11.00;99.90
13035;DHT22;6584;48.022;11.810;2022-10-31T03:00:26;11.00;99.90
13035;DHT22;6584;48.022;11.810;2022-10-31T03:05:55;10.90;99.90
13035;DHT22;6584;48.022;11.810;2022-10-31T03:08:43;10.90;99.90
13035;DHT22;6584;48.022;11.810;2022-10-31T03:11:12;10.90;99.90
13035;DHT22;6584;48.022;11.810;2022-10-31T03:14:03;11.00;99.90
13035;DHT22;6584;48.022;11.810;2022-10-31T03:16:43;10.90;99.90
13035;DHT22;6584;48.022;11.810;2022-10-31T03:19:19;10.90;99.90
13035;DHT22;6584;48.022;11.810;2022-10-31T03:21:54;10.90;99.90
13035;DHT22;6584;48.022;11.810;2022-10-31T03:24:23;10.90;99.90
13035;DHT22;6584;48.022;11.810;2022-10-31T03:26:52;10.90;99.90
13035;DHT22;6584;48.022;11.810;2022-10-31T03:29:21;10.90;99.90
13035;DHT22;6584;48.022;11.810;2022-10-31T03:32:12;10.80;99.90
13035;DHT22;6584;48.022;11.810;2022-10-31T03:34:39;10.80;99.90
13035;DHT22;6584;48.022;11.810;2022-10-31T03:37:08;10.70;99.90
13035;DHT22;6584;48.022;11.810;2022-10-31T03:39:36;10.70;99.90
13035;DHT22;6584;48.022;11.810;2022-10-31T03:42:08;10.70;99.90
13035;DHT22;6584;48.022;11.810;2022-10-31T03:44:35;10.70;99.90
13035;DHT22;6584;48.022;11.810;2022-10-31T03:47:04;10.70;99.90
13035;DHT22;6584;48.022;11.810;2022-10-31T03:49:30;10.60;99.90
13035;DHT22;6584;48.022;11.810;2022-10-31T03:52:11;10.60;99.90
13035;DHT22;6584;48.022;11.810;2022-10-31T03:54:46;10.60;99.90
13035;DHT22;6584;48.022;11.810;2022-10-31T03:57:38;10.60;99.90
13035;DHT22;6584;48.022;11.810;2022-10-31T04:00:08;10.60;99.90
13035;DHT22;6584;48.022;11.810;2022-10-31T04:02:39;10.60;99.90
13035;DHT22;6584;48.022;11.810;2022-10-31T04:05:08;10.50;99.90
13035;DHT22;6584;48.022;11.810;2022-10-31T04:07:37;10.50;99.90
13035;DHT22;6584;48.022;11.810;2022-10-31T04:10:07;10.50;99.90
13035;DHT22;6584;48.022;11.810;2022-10-31T04:12:36;10.50;99.90
13035;DHT22;6584;48.022;11.810;2022-10-31T04:15:05;10.50;99.90
13035;DHT22;6584;48.022;11.810;2022-10-31T04:17:36;10.50;99.90
13035;DHT22;6584;48.022;11.810;2022-10-31T04:20:03;10.50;99.90
13035;DHT22;6584;48.022;11.810;2022-10-31T04:22:29;10.50;99.90
13035;DHT22;6584;48.022;11.810;2022-10-31T04:24:55;10.50;99.90
13035;DHT22;6584;48.022;11.810;2022-10-31T04:27:20;10.50;99.90
13035;DHT22;6584;48.022;11.810;2022-10-31T04:29:46;10.50;99.90
13035;DHT22;6584;48.022;11.810;2022-10-31T04:32:11;10.50;99.90
13035;DHT22;6584;48.022;11.810;2022-10-31T04:34:37;10.50;99.90
13035;DHT22;6584;48.022;11.810;2022-10-31T04:37:02;10.50;99.90
13035;DHT22;6584;48.022;11.810;2022-10-31T04:39:28;10.40;99.90
13035;DHT22;6584;48.022;11.810;2022-10-31T04:41:53;10.40;99.90
13035;DHT22;6584;48.022;11.810;2022-10-31T04:44:19;10.50;99.90
13035;DHT22;6584;48.022;11.810;2022-10-31T04:46:45;10.50;99.90
13035;DHT22;6584;48.022;11.810;2022-10-31T04:49:10;10.40;99.90
13035;DHT22;6584;48.022;11.810;2022-10-31T04:51:36;10.40;99.90
13035;DHT22;6584;48.022;11.810;2022-10-31T04:54:01;10.40;99.90
13035;DHT22;6584;48.022;11.810;2022-10-31T04:56:27;10.40;99.90
13035;DHT22;6584;48.022;11.810;2022-10-31T04:58:52;10.40;99.90
13035;DHT22;6584;48.022;11.810;2022-10-31T05:01:18;10.40;99.90
13035;DHT22;6584;48.022;11.810;2022-10-31T05:03:43;10.40;99.90
13035;DHT22;6584;48.022;11.810;2022-10-31T05:06:09;10.40;99.90
13035;DHT22;6584;48.022;11.810;2022-10-31T05:08:34;10.40;99.90
13035;DHT22;6584;48.022;11.810;2022-10-31T05:11:04;10.40;99.90
13035;DHT22;6584;48.022;11.810;2022-10-31T05:13:30;10.40;99.90
13035;DHT22;6584;48.022;11.810;2022-10-31T05:15:55;10.30;99.90
13035;DHT22;6584;48.022;11.810;2022-10-31T05:18:21;10.30;99.90
13035;DHT22;6584;48.022;11.810;2022-10-31T05:20:47;10.20;99.90
13035;DHT22;6584;48.022;11.810;2022-10-31T05:23:12;10.20;99.90
13035;DHT22;6584;48.022;11.810;2022-10-31T05:25:40;10.20;99.90
13035;DHT22;6584;48.022;11.810;2022-10-31T05:28:05;10.20;99.90
13035;DHT22;6584;48.022;11.810;2022-10-31T05:30:32;10.20;99.90
13035;DHT22;6584;48.022;11.810;2022-10-31T05:32:58;10.20;99.90
13035;DHT22;6584;48.022;11.810;2022-10-31T05:35:29;10.20;99.90
13035;DHT22;6584;48.022;11.810;2022-10-31T05:37:55;10.20;99.90
13035;DHT22;6584;48.022;11.810;2022-10-31T05:40:21;10.20;99.90
13035;DHT22;6584;48.022;11.810;2022-10-31T05:42:50;10.10;99.90
13035;DHT22;6584;48.022;11.810;2022-10-31T05:45:17;10.10;99.90
13035;DHT22;6584;48.022;11.810;2022-10-31T05:47:50;10.00;99.90
13035;DHT22;6584;48.022;11.810;2022-10-31T05:50:16;10.00;99.90
13035;DHT22;6584;48.022;11.810;2022-10-31T05:52:42;9.90;99.90
13035;DHT22;6584;48.022;11.810;2022-10-31T05:55:08;10.00;99.90
13035;DHT22;6584;48.022;11.810;2022-10-31T05:57:33;10.00;99.90
13035;DHT22;6584;48.022;11.810;2022-10-31T05:59:59;10.00;99.90
13035;DHT22;6584;48.022;11.810;2022-10-31T06:02:25;10.00;99.90
13035;DHT22;6584;48.022;11.810;2022-10-31T06:04:52;10.10;99.90
13035;DHT22;6584;48.022;11.810;2022-10-31T06:07:17;10.00;99.90
13035;DHT22;6584;48.022;11.810;2022-10-31T06:09:43;10.00;99.90
13035;DHT22;6584;48.022;11.810;2022-10-31T06:12:09;10.10;99.90
13035;DHT22;6584;48.022;11.810;2022-10-31T06:14:34;10.10;99.90
13035;DHT22;6584;48.022;11.810;2022-10-31T06:17:00;10.10;99.90
13035;DHT22;6584;48.022;11.810;2022-10-31T06:19:25;10.10;99.90
13035;DHT22;6584;48.022;11.810;2022-10-31T06:21:51;10.10;99.90
13035;DHT22;6584;48.022;11.810;2022-10-31T06:24:17;10.10;99.90
13035;DHT22;6584;48.022;11.810;2022-10-31T06:26:42;10.10;99.90
13035;DHT22;6584;48.022;11.810;2022-10-31T06:29:08;10.10;99.90
13035;DHT22;6584;48.022;11.810;2022-10-31T06:31:33;10.10;99.90
13035;DHT22;6584;48.022;11.810;2022-10-31T06:33:59;10.10;99.90
13035;DHT22;6584;48.022;11.810;2022-10-31T06:36:24;10.10;99.90
13035;DHT22;6584;48.022;11.810;2022-10-31T06:38:50;10.10;99.90
13035;DHT22;6584;48.022;11.810;2022-10-31T06:41:15;10.10;99.90
13035;DHT22;6584;48.022;11.810;2022-10-31T06:43:41;10.10;99.90
13035;DHT22;6584;48.022;11.810;2022-10-31T06:46:07;10.20;99.90
13035;DHT22;6584;48.022;11.810;2022-10-31T06:48:32;10.20;99.90
13035;DHT22;6584;48.022;11.810;2022-10-31T06:50:59;10.20;99.90
13035;DHT22;6584;48.022;11.810;2022-10-31T06:53:25;10.20;99.90
13035;DHT22;6584;48.022;11.810;2022-10-31T06:55:51;10.30;99.90
13035;DHT22;6584;48.022;11.810;2022-10-31T06:58:16;10.30;99.90
13035;DHT22;6584;48.022;11.810;2022-10-31T07:00:42;10.30;99.90
13035;DHT22;6584;48.022;11.810;2022-10-31T07:03:12;10.40;99.90
13035;DHT22;6584;48.022;11.810;2022-10-31T07:05:38;10.40;99.90
13035;DHT22;6584;48.022;11.810;2022-10-31T07:08:07;10.40;99.90
13035;DHT22;6584;48.022;11.810;2022-10-31T07:10:34;10.50;99.90
13035;DHT22;6584;48.022;11.810;2022-10-31T07:13:03;10.50;99.90
13035;DHT22;6584;48.022;11.810;2022-10-31T07:15:34;10.50;99.90
13035;DHT22;6584;48.022;11.810;2022-10-31T07:18:03;10.60;99.90
13035;DHT22;6584;48.022;11.810;2022-10-31T07:20:29;10.60;99.90
13035;DHT22;6584;48.022;11.810;2022-10-31T07:22:55;10.60;99.90
13035;DHT22;6584;48.022;11.810;2022-10-31T07:25:21;10.60;99.90
13035;DHT22;6584;48.022;11.810;2022-10-31T07:27:46;10.80;99.90
13035;DHT22;6584;48.022;11.810;2022-10-31T07:30:13;10.70;99.90
13035;DHT22;6584;48.022;11.810;2022-10-31T07:32:43;10.80;99.90
13035;DHT22;6584;48.022;11.810;2022-10-31T07:35:11;10.80;99.90
13035;DHT22;6584;48.022;11.810;2022-10-31T07:37:37;10.90;99.90
13035;DHT22;6584;48.022;11.810;2022-10-31T07:40:05;11.20;99.90
13035;DHT22;6584;48.022;11.810;2022-10-31T07:42:37;11.70;99.90
13035;DHT22;6584;48.022;11.810;2022-10-31T07:45:04;11.90;99.90
13035;DHT22;6584;48.022;11.810;2022-10-31T07:47:37;12.20;99.90
13035;DHT22;6584;48.022;11.810;2022-10-31T07:50:02;12.30;99.90
13035;DHT22;6584;48.022;11.810;2022-10-31T07:52:28;12.20;99.90
13035;DHT22;6584;48.022;11.810;2022-10-31T07:54:54;12.20;99.90
13035;DHT22;6584;48.022;11.810;2022-10-31T07:57:19;12.10;99.90
13035;DHT22;6584;48.022;11.810;2022-10-31T07:59:45;12.10;99.90
13035;DHT22;6584;48.022;11.810;2022-10-31T08:02:14;12.10;99.90
13035;DHT22;6584;48.022;11.810;2022-10-31T08:04:39;12.20;99.90
13035;DHT22;6584;48.022;11.810;2022-10-31T08:07:05;12.30;99.90
13035;DHT22;6584;48.022;11.810;2022-10-31T08:09:31;12.40;99.90
13035;DHT22;6584;48.022;11.810;2022-10-31T08:11:56;12.50;99.90
13035;DHT22;6584;48.022;11.810;2022-10-31T08:14:22;12.50;99.90
13035;DHT22;6584;48.022;11.810;2022-10-31T08:16:48;12.50;99.90
13035;DHT22;6584;48.022;11.810;2022-10-31T08:19:14;12.60;99.90
13035;DHT22;6584;48.022;11.810;2022-10-31T08:21:40;12.60;99.90
13035;DHT22;6584;48.022;11.810;2022-10-31T08:24:06;12.70;99.90
13035;DHT22;6584;48.022;11.810;2022-10-31T08:26:31;12.90;99.90
13035;DHT22;6584;48.022;11.810;2022-10-31T08:29:01;13.00;99.90
13035;DHT22;6584;48.022;11.810;2022-10-31T08:31:27;13.10;99.90
13035;DHT22;6584;48.022;11.810;2022-10-31T08:33:53;13.20;99.90
13035;DHT22;6584;48.022;11.810;2022-10-31T08:36:20;13.20;99.90
13035;DHT22;6584;48.022;11.810;2022-10-31T08:38:48;13.40;99.90
13035;DHT22;6584;48.022;11.810;2022-10-31T08:41:14;13.50;99.90
13035;DHT22;6584;48.022;11.810;2022-10-31T08:43:40;13.70;99.90
13035;DHT22;6584;48.022;11.810;2022-10-31T08:46:06;14.10;99.90
13035;DHT22;6584;48.022;11.810;2022-10-31T08:48:32;14.50;99.90
13035;DHT22;6584;48.022;11.810;2022-10-31T08:50:59;14.70;99.90
13035;DHT22;6584;48.022;11.810;2022-10-31T08:53:25;14.90;99.90
13035;DHT22;6584;48.022;11.810;2022-10-31T08:55:53;15.10;99.90
13035;DHT22;6584;48.022;11.810;2022-10-31T08:58:20;15.30;99.90
13035;DHT22;6584;48.022;11.810;2022-10-31T09:00:47;15.20;99.90
13035;DHT22;6584;48.022;11.810;2022-10-31T09:03:22;15.20;99.90
13035;DHT22;6584;48.022;11.810;2022-10-31T09:05:48;15.20;99.90
13035;DHT22;6584;48.022;11.810;2022-10-31T09:08:14;15.50;99.90
13035;DHT22;6584;48.022;11.810;2022-10-31T09:10:40;15.50;99.90
13035;DHT22;6584;48.022;11.810;2022-10-31T09:13:17;15.50;99.90
13035;DHT22;6584;48.022;11.810;2022-10-31T09:15:45;15.50;99.90
13035;DHT22;6584;48.022;11.810;2022-10-31T09:18:12;15.50;99.90
13035;DHT22;6584;48.022;11.810;2022-10-31T09:20:39;15.50;99.90
13035;DHT22;6584;48.022;11.810;2022-10-31T09:23:13;15.60;99.90
13035;DHT22;6584;48.022;11.810;2022-10-31T09:25:39;15.60;99.90
13035;DHT22;6584;48.022;11.810;2022-10-31T09:28:07;15.60;99.90
13035;DHT22;6584;48.022;11.810;2022-10-31T09:30:35;15.70;99.90
13035;DHT22;6584;48.022;11.810;2022-10-31T09:33:06;15.70;99.90
13035;DHT22;6584;48.022;11.810;2022-10-31T09:35:32;15.80;99.90
13035;DHT22;6584;48.022;11.810;2022-10-31T09:38:00;15.90;99.90
13035;DHT22;6584;48.022;11.810;2022-10-31T09:40:40;15.80;99.90
13035;DHT22;6584;48.022;11.810;2022-10-31T09:52:24;16.00;99.90
13035;DHT22;6584;48.022;11.810;2022-10-31T09:57:33;16.10;99.90
13035;DHT22;6584;48.022;11.810;2022-10-31T09:59:59;16.10;99.90
13035;DHT22;6584;48.022;11.810;2022-10-31T10:02:47;16.00;99.90
13035;DHT22;6584;48.022;11.810;2022-10-31T10:05:20;16.20;99.90
13035;DHT22;6584;48.022;11.810;2022-10-31T10:08:05;16.20;99.90
13035;DHT22;6584;48.022;11.810;2022-10-31T10:10:55;16.30;99.90
13035;DHT22;6584;48.022;11.810;2022-10-31T10:13:35;16.30;99.90
13035;DHT22;6584;48.022;11.810;2022-10-31T10:18:53;16.40;99.90
13035;DHT22;6584;48.022;11.810;2022-10-31T10:21:29;16.30;99.90
13035;DHT22;6584;48.022;11.810;2022-10-31T10:26:48;16.20;99.90
13035;DHT22;6584;48.022;11.810;2022-10-31T10:32:21;16.40;99.90
13035;DHT22;6584;48.022;11.810;2022-10-31T10:34:55;16.40;99.90
13035;DHT22;6584;48.022;11.810;2022-10-31T10:37:36;16.40;99.90
13035;DHT22;6584;48.022;11.810;2022-10-31T10:40:15;16.50;99.90
13035;DHT22;6584;48.022;11.810;2022-10-31T10:42:44;16.50;99.90
13035;DHT22;6584;48.022;11.810;2022-10-31T10:45:28;16.50;99.90
13035;DHT22;6584;48.022;11.810;2022-10-31T10:50:44;16.40;99.90
13035;DHT22;6584;48.022;11.810;2022-10-31T10:53:36;16.50;99.90
13035;DHT22;6584;48.022;11.810;2022-10-31T10:56:23;16.50;99.90
13035;DHT22;6584;48.022;11.810;2022-10-31T10:58:52;16.60;99.90
13035;DHT22;6584;48.022;11.810;2022-10-31T11:01:21;16.60;99.90
13035;DHT22;6584;48.022;11.810;2022-10-31T11:03:47;16.60;99.90
13035;DHT22;6584;48.022;11.810;2022-10-31T11:06:18;16.60;99.90
13035;DHT22;6584;48.022;11.810;2022-10-31T11:08:47;16.70;99.90
13035;DHT22;6584;48.022;11.810;2022-10-31T11:11:24;16.70;99.90
13035;DHT22;6584;48.022;11.810;2022-10-31T11:14:12;16.80;99.90
13035;DHT22;6584;48.022;11.810;2022-10-31T11:16:42;16.80;99.90
13035;DHT22;6584;48.022;11.810;2022-10-31T11:19:25;16.90;99.90
13035;DHT22;6584;48.022;11.810;2022-10-31T11:21:52;17.10;99.90
13035;DHT22;6584;48.022;11.810;2022-10-31T11:24:21;17.10;99.90
13035;DHT22;6584;48.022;11.810;2022-10-31T11:26:49;17.00;99.90
13035;DHT22;6584;48.022;11.810;2022-10-31T11:29:23;17.10;99.90
13035;DHT22;6584;48.022;11.810;2022-10-31T11:31:52;17.10;99.90
13035;DHT22;6584;48.022;11.810;2022-10-31T11:34:32;17.10;99.90
13035;DHT22;6584;48.022;11.810;2022-10-31T11:37:13;17.20;99.90
13035;DHT22;6584;48.022;11.810;2022-10-31T11:39:43;17.30;99.90
13035;DHT22;6584;48.022;11.810;2022-10-31T11:42:10;17.30;99.90
13035;DHT22;6584;48.022;11.810;2022-10-31T11:44:35;17.30;99.90
13035;DHT22;6584;48.022;11.810;2022-10-31T11:47:03;17.20;99.90
13035;DHT22;6584;48.022;11.810;2022-10-31T11:49:37;17.30;99.90
13035;DHT22;6584;48.022;11.810;2022-10-31T11:52:25;17.30;99.90
13035;DHT22;6584;48.022;11.810;2022-10-31T11:57:23;17.40;99.90
13035;DHT22;6584;48.022;11.810;2022-10-31T11:59:54;17.50;99.90
13035;DHT22;6584;48.022;11.810;2022-10-31T12:02:21;17.50;99.90
13035;DHT22;6584;48.022;11.810;2022-10-31T12:04:55;17.50;99.90
13035;DHT22;6584;48.022;11.810;2022-10-31T12:07:22;17.50;99.90
13035;DHT22;6584;48.022;11.810;2022-10-31T12:09:48;17.60;99.90
13035;DHT22;6584;48.022;11.810;2022-10-31T12:17:35;17.70;99.90
13035;DHT22;6584;48.022;11.810;2022-10-31T12:20:25;17.80;99.90
13035;DHT22;6584;48.022;11.810;2022-10-31T12:23:10;17.40;99.90
13035;DHT22;6584;48.022;11.810;2022-10-31T12:25:43;17.80;99.90
13035;DHT22;6584;48.022;11.810;2022-10-31T12:28:43;17.70;99.90
13035;DHT22;6584;48.022;11.810;2022-10-31T12:31:33;17.80;99.90
13035;DHT22;6584;48.022;11.810;2022-10-31T12:37:01;17.80;99.90
13035;DHT22;6584;48.022;11.810;2022-10-31T12:54:06;17.80;99.90
13035;DHT22;6584;48.022;11.810;2022-10-31T12:59:07;17.80;99.90
13035;DHT22;6584;48.022;11.810;2022-10-31T13:01:39;17.80;99.90
13035;DHT22;6584;48.022;11.810;2022-10-31T13:07:02;17.90;99.90
13035;DHT22;6584;48.022;11.810;2022-10-31T13:09:34;17.90;99.90
13035;DHT22;6584;48.022;11.810;2022-10-31T13:12:11;17.90;99.90
13035;DHT22;6584;48.022;11.810;2022-10-31T13:14:48;18.00;99.90
13035;DHT22;6584;48.022;11.810;2022-10-31T13:17:43;18.00;99.90
13035;DHT22;6584;48.022;11.810;2022-10-31T13:20:20;17.90;99.90
13035;DHT22;6584;48.022;11.810;2022-10-31T13:22:49;17.90;99.90
13035;DHT22;6584;48.022;11.810;2022-10-31T13:25:30;17.90;99.90
13035;DHT22;6584;48.022;11.810;2022-10-31T13:28:23;17.90;99.90
13035;DHT22;6584;48.022;11.810;2022-10-31T13:30:51;18.00;99.90
13035;DHT22;6584;48.022;11.810;2022-10-31T13:38:58;17.90;99.90
13035;DHT22;6584;48.022;11.810;2022-10-31T13:44:24;17.90;99.90
13035;DHT22;6584;48.022;11.810;2022-10-31T13:46:51;17.80;99.90
13035;DHT22;6584;48.022;11.810;2022-10-31T13:54:47;17.80;99.90
13035;DHT22;6584;48.022;11.810;2022-10-31T14:02:51;17.80;99.90
13035;DHT22;6584;48.022;11.810;2022-10-31T14:05:27;17.70;99.90
13035;DHT22;6584;48.022;11.810;2022-10-31T14:07:55;17.70;99.90
13035;DHT22;6584;48.022;11.810;2022-10-31T14:13:03;17.70;99.90
13035;DHT22;6584;48.022;11.810;2022-10-31T14:15:29;17.60;99.90
13035;DHT22;6584;48.022;11.810;2022-10-31T14:18:01;17.60;99.90
13035;DHT22;6584;48.022;11.810;2022-10-31T14:20:41;17.50;99.90
13035;DHT22;6584;48.022;11.810;2022-10-31T14:23:38;17.50;99.90
13035;DHT22;6584;48.022;11.810;2022-10-31T14:26:29;17.50;99.90
13035;DHT22;6584;48.022;11.810;2022-10-31T14:29:39;17.50;99.90
13035;DHT22;6584;48.022;11.810;2022-10-31T14:34:34;17.40;99.90
13035;DHT22;6584;48.022;11.810;2022-10-31T14:45:40;17.50;99.90
13035;DHT22;6584;48.022;11.810;2022-10-31T14:48:24;17.50;99.90
13035;DHT22;6584;48.022;11.810;2022-10-31T14:50:54;17.50;99.90
13035;DHT22;6584;48.022;11.810;2022-10-31T14:53:35;17.60;99.90
13035;DHT22;6584;48.022;11.810;2022-10-31T14:56:09;17.50;99.90
13035;DHT22;6584;48.022;11.810;2022-10-31T14:58:41;17.60;99.90
13035;DHT22;6584;48.022;11.810;2022-10-31T15:03:48;17.50;99.90
13035;DHT22;6584;48.022;11.810;2022-10-31T15:06:16;17.50;99.90
13035;DHT22;6584;48.022;11.810;2022-10-31T15:08:51;17.50;99.90
13035;DHT22;6584;48.022;11.810;2022-10-31T15:11:19;17.50;99.90
13035;DHT22;6584;48.022;11.810;2022-10-31T15:16:14;17.30;99.90
13035;DHT22;6584;48.022;11.810;2022-10-31T15:21:19;17.20;99.90
13035;DHT22;6584;48.022;11.810;2022-10-31T15:23:46;17.20;99.90
13035;DHT22;6584;48.022;11.810;2022-10-31T15:26:21;17.10;99.90
13035;DHT22;6584;48.022;11.810;2022-10-31T15:28:58;17.10;99.90
13035;DHT22;6584;48.022;11.810;2022-10-31T15:31:24;17.00;99.90
13035;DHT22;6584;48.022;11.810;2022-10-31T15:33:50;17.00;99.90
13035;DHT22;6584;48.022;11.810;2022-10-31T15:36:24;17.00;99.90
13035;DHT22;6584;48.022;11.810;2022-10-31T15:38:50;16.90;99.90
13035;DHT22;6584;48.022;11.810;2022-10-31T15:41:46;16.90;99.90
13035;DHT22;6584;48.022;11.810;2022-10-31T15:44:15;16.90;99.90
13035;DHT22;6584;48.022;11.810;2022-10-31T15:46:42;16.90;99.90
13035;DHT22;6584;48.022;11.810;2022-10-31T15:49:31;16.80;99.90
13035;DHT22;6584;48.022;11.810;2022-10-31T15:52:06;16.80;99.90
13035;DHT22;6584;48.022;11.810;2022-10-31T15:54:35;16.70;99.90
13035;DHT22;6584;48.022;11.810;2022-10-31T15:57:02;16.60;99.90
13035;DHT22;6584;48.022;11.810;2022-10-31T15:59:28;16.50;99.90
13035;DHT22;6584;48.022;11.810;2022-10-31T16:02:00;16.50;99.90
13035;DHT22;6584;48.022;11.810;2022-10-31T16:04:27;16.50;99.90
13035;DHT22;6584;48.022;11.810;2022-10-31T16:06:59;16.40;99.90
13035;DHT22;6584;48.022;11.810;2022-10-31T16:09:25;16.40;99.90
13035;DHT22;6584;48.022;11.810;2022-10-31T16:11:51;16.30;99.90
13035;DHT22;6584;48.022;11.810;2022-10-31T16:14:19;16.20;99.90
13035;DHT22;6584;48.022;11.810;2022-10-31T16:16:49;16.10;99.90
13035;DHT22;6584;48.022;11.810;2022-10-31T16:22:19;16.00;99.90
13035;DHT22;6584;48.022;11.810;2022-10-31T16:24:56;16.00;99.90
13035;DHT22;6584;48.022;11.810;2022-10-31T16:27:25;15.90;99.90
13035;DHT22;6584;48.022;11.810;2022-10-31T16:29:56;15.90;99.90
13035;DHT22;6584;48.022;11.810;2022-10-31T16:32:30;15.80;99.90
13035;DHT22;6584;48.022;11.810;2022-10-31T16:37:33;15.60;99.90
13035;DHT22;6584;48.022;11.810;2022-10-31T16:39:59;15.40;99.90
13035;DHT22;6584;48.022;11.810;2022-10-31T16:42:24;15.40;99.90
13035;DHT22;6584;48.022;11.810;2022-10-31T16:44:51;15.30;99.90
13035;DHT22;6584;48.022;11.810;2022-10-31T16:47:17;15.30;99.90
13035;DHT22;6584;48.022;11.810;2022-10-31T16:49:44;15.30;99.90
13035;DHT22;6584;48.022;11.810;2022-10-31T16:52:11;15.20;99.90
13035;DHT22;6584;48.022;11.810;2022-10-31T16:54:38;15.10;99.90
13035;DHT22;6584;48.022;11.810;2022-10-31T16:57:05;15.10;99.90
13035;DHT22;6584;48.022;11.810;2022-10-31T16:59:32;15.10;99.90
13035;DHT22;6584;48.022;11.810;2022-10-31T17:02:00;15.00;99.90
13035;DHT22;6584;48.022;11.810;2022-10-31T17:04:26;14.90;99.90
13035;DHT22;6584;48.022;11.810;2022-10-31T17:06:51;14.90;99.90
13035;DHT22;6584;48.022;11.810;2022-10-31T17:09:17;14.80;99.90
13035;DHT22;6584;48.022;11.810;2022-10-31T17:11:48;14.70;99.90
13035;DHT22;6584;48.022;11.810;2022-10-31T17:14:15;14.70;99.90
13035;DHT22;6584;48.022;11.810;2022-10-31T17:16:41;14.60;99.90
13035;DHT22;6584;48.022;11.810;2022-10-31T17:19:10;14.40;99.90
13035;DHT22;6584;48.022;11.810;2022-10-31T17:21:36;14.40;99.90
13035;DHT22;6584;48.022;11.810;2022-10-31T17:24:02;14.30;99.90
13035;DHT22;6584;48.022;11.810;2022-10-31T17:26:28;14.30;99.90
13035;DHT22;6584;48.022;11.810;2022-10-31T17:28:53;14.20;99.90
13035;DHT22;6584;48.022;11.810;2022-10-31T17:31:27;14.20;99.90
13035;DHT22;6584;48.022;11.810;2022-10-31T17:33:57;14.10;99.90
13035;DHT22;6584;48.022;11.810;2022-10-31T17:36:23;14.00;99.90
13035;DHT22;6584;48.022;11.810;2022-10-31T17:38:48;14.10;99.90
13035;DHT22;6584;48.022;11.810;2022-10-31T17:41:14;14.00;99.90